sensor_id;sensor_type;location;lat;lon;timestamp;pressure;altitude;pressure_sealevel;temperature;humidity
7337;BME280;54510;42.016;23.098;2023-01-28T00:01:47;-21272.78;;;5.02;66.78
7337;BME280;54510;42.016;23.098;2023-01-28T00:04:13;-21273.19;;;5.04;66.43
7337;BME280;54510;42.016;23.098;2023-01-28T00:06:40;-21268.28;;;4.86;66.91
7337;BME280;54510;42.016;23.098;2023-01-28T00:09:05;-21267.47;;;4.83;66.95
7337;BME280;54510;42.016;23.098;2023-01-28T00:11:31;-21270.69;;;4.95;66.96
7337;BME280;54510;42.016;23.098;2023-01-28T00:13:56;-21267.31;;;4.83;67.34
7337;BME280;54510;42.016;23.098;2023-01-28T00:16:22;-21267.75;;;4.84;67.37
7337;BME280;54510;42.016;23.098;2023-01-28T00:18:47;-21263.81;;;4.70;67.59
7337;BME280;54510;42.016;23.098;2023-01-28T00:21:14;-21265.94;;;4.78;67.55
7337;BME280;54510;42.016;23.098;2023-01-28T00:23:41;-21268.44;;;4.87;67.05
7337;BME280;54510;42.016;23.098;2023-01-28T00:26:11;-21268.28;;;4.86;67.28
7337;BME280;54510;42.016;23.098;2023-01-28T00:28:37;-21268.72;;;4.88;67.91
7337;BME280;54510;42.016;23.098;2023-01-28T00:31:12;-21269.97;;;4.92;67.84
7337;BME280;54510;42.016;23.098;2023-01-28T00:33:38;-21262.00;;;4.63;68.41
7337;BME280;54510;42.016;23.098;2023-01-28T00:36:04;-21267.59;;;4.84;68.59
7337;BME280;54510;42.016;23.098;2023-01-28T00:38:31;-21263.81;;;4.70;69.39
7337;BME280;54510;42.016;23.098;2023-01-28T00:41:15;-21264.53;;;4.72;69.44
7337;BME280;54510;42.016;23.098;2023-01-28T00:43:42;-21265.94;;;4.78;69.40
7337;BME280;54510;42.016;23.098;2023-01-28T00:46:10;-21264.53;;;4.72;69.47
7337;BME280;54510;42.016;23.098;2023-01-28T00:48:36;-21268.44;;;4.87;69.42
7337;BME280;54510;42.016;23.098;2023-01-28T00:51:03;-21263.97;;;4.70;69.29
7337;BME280;54510;42.016;23.098;2023-01-28T00:53:29;-21263.28;;;4.68;69.44
7337;BME280;54510;42.016;23.098;2023-01-28T00:55:54;-21264.94;;;4.74;68.53
7337;BME280;54510;42.016;23.098;2023-01-28T00:58:20;-21265.78;;;4.77;68.26
7337;BME280;54510;42.016;23.098;2023-01-28T01:00:49;-21265.50;;;4.76;69.10
7337;BME280;54510;42.016;23.098;2023-01-28T01:03:15;-21258.25;;;4.50;69.41
7337;BME280;54510;42.016;23.098;2023-01-28T01:05:40;-21268.00;;;4.85;68.70
7337;BME280;54510;42.016;23.098;2023-01-28T01:08:06;-21271.38;;;4.97;67.46
7337;BME280;54510;42.016;23.098;2023-01-28T01:10:31;-21268.00;;;4.85;68.68
7337;BME280;54510;42.016;23.098;2023-01-28T01:12:57;-21270.53;;;4.94;67.55
7337;BME280;54510;42.016;23.098;2023-01-28T01:15:23;-21269.41;;;4.90;67.32
7337;BME280;54510;42.016;23.098;2023-01-28T01:17:49;-21268.56;;;4.87;67.82
7337;BME280;54510;42.016;23.098;2023-01-28T01:20:17;-21272.22;;;5.00;67.21
7337;BME280;54510;42.016;23.098;2023-01-28T01:22:43;-21261.88;;;4.63;68.02
7337;BME280;54510;42.016;23.098;2023-01-28T01:25:09;-21268.00;;;4.85;68.07
7337;BME280;54510;42.016;23.098;2023-01-28T01:27:35;-21270.94;;;4.96;67.13
7337;BME280;54510;42.016;23.098;2023-01-28T01:30:01;-21262.16;;;4.64;68.03
7337;BME280;54510;42.016;23.098;2023-01-28T01:32:30;-21266.06;;;4.78;67.45
7337;BME280;54510;42.016;23.098;2023-01-28T01:34:56;-21269.69;;;4.91;66.83
7337;BME280;54510;42.016;23.098;2023-01-28T01:37:22;-21273.06;;;5.03;66.95
7337;BME280;54510;42.016;23.098;2023-01-28T01:39:47;-21268.44;;;4.87;67.45
7337;BME280;54510;42.016;23.098;2023-01-28T01:42:13;-21269.97;;;4.92;67.30
7337;BME280;54510;42.016;23.098;2023-01-28T01:44:55;-21271.94;;;4.99;67.46
7337;BME280;54510;42.016;23.098;2023-01-28T01:49:57;-21267.31;;;4.83;68.36
7337;BME280;54510;42.016;23.098;2023-01-28T01:52:28;-21270.13;;;4.93;67.76
7337;BME280;54510;42.016;23.098;2023-01-28T01:54:58;-21273.19;;;5.04;67.59
7337;BME280;54510;42.016;23.098;2023-01-28T01:57:29;-21271.38;;;4.97;67.22
7337;BME280;54510;42.016;23.098;2023-01-28T01:59:56;-21267.31;;;4.83;67.30
7337;BME280;54510;42.016;23.098;2023-01-28T02:02:39;-21265.50;;;4.76;67.76
7337;BME280;54510;42.016;23.098;2023-01-28T02:05:11;-21270.94;;;4.96;67.43
7337;BME280;54510;42.016;23.098;2023-01-28T02:07:37;-21271.38;;;4.97;67.44
7337;BME280;54510;42.016;23.098;2023-01-28T02:10:04;-21263.00;;;4.67;68.41
7337;BME280;54510;42.016;23.098;2023-01-28T02:12:36;-21262.00;;;4.63;69.30
7337;BME280;54510;42.016;23.098;2023-01-28T02:15:13;-21260.75;;;4.59;68.92
7337;BME280;54510;42.016;23.098;2023-01-28T02:17:41;-21265.38;;;4.75;68.90
7337;BME280;54510;42.016;23.098;2023-01-28T02:20:09;-21262.44;;;4.65;68.61
7337;BME280;54510;42.016;23.098;2023-01-28T02:30:47;-21263.69;;;4.69;69.36
7337;BME280;54510;42.016;23.098;2023-01-28T02:33:18;-21265.78;;;4.77;69.09
7337;BME280;54510;42.016;23.098;2023-01-28T02:35:53;-21263.81;;;4.70;68.82
7337;BME280;54510;42.016;23.098;2023-01-28T02:38:38;-21271.09;;;4.96;68.37
7337;BME280;54510;42.016;23.098;2023-01-28T02:41:12;-21265.38;;;4.75;68.95
7337;BME280;54510;42.016;23.098;2023-01-28T02:43:41;-21265.22;;;4.75;68.92
7337;BME280;54510;42.016;23.098;2023-01-28T02:49:41;-21267.03;;;4.82;68.66
7337;BME280;54510;42.016;23.098;2023-01-28T02:52:12;-21265.22;;;4.75;69.09
7337;BME280;54510;42.016;23.098;2023-01-28T02:55:06;-21263.13;;;4.67;68.87
7337;BME280;54510;42.016;23.098;2023-01-28T02:57:57;-21266.19;;;4.78;68.69
7337;BME280;54510;42.016;23.098;2023-01-28T03:05:57;-21261.03;;;4.60;68.82
7337;BME280;54510;42.016;23.098;2023-01-28T03:09:00;-21263.56;;;4.69;69.31
7337;BME280;54510;42.016;23.098;2023-01-28T03:11:46;-21261.16;;;4.60;68.29
7337;BME280;54510;42.016;23.098;2023-01-28T03:14:33;-21268.00;;;4.85;68.48
7337;BME280;54510;42.016;23.098;2023-01-28T03:17:23;-21266.19;;;4.78;68.36
7337;BME280;54510;42.016;23.098;2023-01-28T03:20:08;-21265.22;;;4.75;69.19
7337;BME280;54510;42.016;23.098;2023-01-28T03:22:55;-21261.59;;;4.62;69.18
7337;BME280;54510;42.016;23.098;2023-01-28T03:25:43;-21259.91;;;4.56;69.89
7337;BME280;54510;42.016;23.098;2023-01-28T03:28:30;-21253.91;;;4.34;71.44
7337;BME280;54510;42.016;23.098;2023-01-28T03:31:17;-21261.59;;;4.62;70.50
7337;BME280;54510;42.016;23.098;2023-01-28T03:34:03;-21263.69;;;4.69;70.38
7337;BME280;54510;42.016;23.098;2023-01-28T03:36:49;-21254.88;;;4.37;72.10
7337;BME280;54510;42.016;23.098;2023-01-28T03:39:17;-21257.69;;;4.48;71.70
7337;BME280;54510;42.016;23.098;2023-01-28T03:44:23;-21257.13;;;4.46;72.59
7337;BME280;54510;42.016;23.098;2023-01-28T03:47:08;-21266.06;;;4.78;70.81
7337;BME280;54510;42.016;23.098;2023-01-28T03:49:45;-21270.13;;;4.93;70.36
7337;BME280;54510;42.016;23.098;2023-01-28T03:52:11;-21271.94;;;4.99;69.95
7337;BME280;54510;42.016;23.098;2023-01-28T03:54:37;-21268.84;;;4.88;70.22
7337;BME280;54510;42.016;23.098;2023-01-28T03:57:03;-21271.66;;;4.98;70.36
7337;BME280;54510;42.016;23.098;2023-01-28T03:59:31;-21260.88;;;4.59;71.30
7337;BME280;54510;42.016;23.098;2023-01-28T04:01:57;-21263.97;;;4.70;70.72
7337;BME280;54510;42.016;23.098;2023-01-28T04:04:23;-21267.03;;;4.82;70.50
7337;BME280;54510;42.016;23.098;2023-01-28T04:06:50;-21263.41;;;4.68;70.59
7337;BME280;54510;42.016;23.098;2023-01-28T04:09:15;-21267.47;;;4.83;69.90
7337;BME280;54510;42.016;23.098;2023-01-28T04:11:41;-21270.81;;;4.95;69.51
7337;BME280;54510;42.016;23.098;2023-01-28T04:14:06;-21275.41;;;5.12;68.66
7337;BME280;54510;42.016;23.098;2023-01-28T04:16:32;-21275.28;;;5.11;68.68
7337;BME280;54510;42.016;23.098;2023-01-28T04:18:57;-21269.13;;;4.89;68.90
7337;BME280;54510;42.016;23.098;2023-01-28T04:21:23;-21269.84;;;4.92;68.87
7337;BME280;54510;42.016;23.098;2023-01-28T04:23:49;-21275.84;;;5.13;68.42
7337;BME280;54510;42.016;23.098;2023-01-28T04:26:15;-21277.25;;;5.19;68.11
7337;BME280;54510;42.016;23.098;2023-01-28T04:28:40;-21280.44;;;5.30;67.92
7337;BME280;54510;42.016;23.098;2023-01-28T04:31:06;-21271.09;;;4.96;68.41
7337;BME280;54510;42.016;23.098;2023-01-28T04:33:31;-21271.38;;;4.97;68.11
7337;BME280;54510;42.016;23.098;2023-01-28T04:35:57;-21270.94;;;4.96;68.61
7337;BME280;54510;42.016;23.098;2023-01-28T04:38:22;-21280.03;;;5.29;67.95
7337;BME280;54510;42.016;23.098;2023-01-28T04:40:51;-21279.75;;;5.28;67.63
7337;BME280;54510;42.016;23.098;2023-01-28T04:43:17;-21282.00;;;5.36;66.65
7337;BME280;54510;42.016;23.098;2023-01-28T04:45:47;-21281.00;;;5.32;66.96
7337;BME280;54510;42.016;23.098;2023-01-28T04:48:13;-21277.50;;;5.20;66.69
7337;BME280;54510;42.016;23.098;2023-01-28T04:50:39;-21266.19;;;4.78;68.50
7337;BME280;54510;42.016;23.098;2023-01-28T04:53:06;-21269.84;;;4.92;67.45
7337;BME280;54510;42.016;23.098;2023-01-28T04:55:31;-21276.41;;;5.15;66.52
7337;BME280;54510;42.016;23.098;2023-01-28T04:57:57;-21266.06;;;4.78;67.39
7337;BME280;54510;42.016;23.098;2023-01-28T05:00:22;-21265.09;;;4.74;68.33
7337;BME280;54510;42.016;23.098;2023-01-28T05:02:47;-21266.75;;;4.81;67.90
7337;BME280;54510;42.016;23.098;2023-01-28T05:05:13;-21264.94;;;4.74;67.91
7337;BME280;54510;42.016;23.098;2023-01-28T05:07:38;-21263.97;;;4.70;68.01
7337;BME280;54510;42.016;23.098;2023-01-28T05:10:04;-21261.59;;;4.62;68.71
7337;BME280;54510;42.016;23.098;2023-01-28T05:12:30;-21259.06;;;4.53;69.51
7337;BME280;54510;42.016;23.098;2023-01-28T05:14:57;-21261.16;;;4.60;69.91
7337;BME280;54510;42.016;23.098;2023-01-28T05:17:25;-21261.31;;;4.61;70.09
7337;BME280;54510;42.016;23.098;2023-01-28T05:19:50;-21258.78;;;4.52;70.38
7337;BME280;54510;42.016;23.098;2023-01-28T05:22:16;-21257.81;;;4.48;70.70
7337;BME280;54510;42.016;23.098;2023-01-28T05:24:41;-21249.56;;;4.18;71.36
7337;BME280;54510;42.016;23.098;2023-01-28T05:27:06;-21257.41;;;4.47;71.08
7337;BME280;54510;42.016;23.098;2023-01-28T05:29:32;-21262.16;;;4.64;70.59
7337;BME280;54510;42.016;23.098;2023-01-28T05:31:57;-21257.97;;;4.49;70.38
7337;BME280;54510;42.016;23.098;2023-01-28T05:34:22;-21249.56;;;4.18;71.84
7337;BME280;54510;42.016;23.098;2023-01-28T05:36:48;-21240.34;;;3.85;72.88
7337;BME280;54510;42.016;23.098;2023-01-28T05:39:13;-21235.31;;;3.67;73.71
7337;BME280;54510;42.016;23.098;2023-01-28T05:41:39;-21243.69;;;3.97;73.44
7337;BME280;54510;42.016;23.098;2023-01-28T05:44:04;-21249.56;;;4.18;72.62
7337;BME280;54510;42.016;23.098;2023-01-28T05:46:30;-21239.22;;;3.81;72.40
7337;BME280;54510;42.016;23.098;2023-01-28T05:48:55;-21240.06;;;3.84;73.02
7337;BME280;54510;42.016;23.098;2023-01-28T05:51:20;-21253.06;;;4.31;71.46
7337;BME280;54510;42.016;23.098;2023-01-28T05:53:46;-21247.06;;;4.09;71.23
7337;BME280;54510;42.016;23.098;2023-01-28T05:56:11;-21255.03;;;4.38;70.79
7337;BME280;54510;42.016;23.098;2023-01-28T05:58:37;-21255.72;;;4.41;70.16
7337;BME280;54510;42.016;23.098;2023-01-28T06:01:03;-21254.19;;;4.35;69.65
7337;BME280;54510;42.016;23.098;2023-01-28T06:03:28;-21257.13;;;4.46;69.56
7337;BME280;54510;42.016;23.098;2023-01-28T06:05:53;-21245.66;;;4.04;70.39
7337;BME280;54510;42.016;23.098;2023-01-28T06:08:19;-21250.56;;;4.22;70.36
7337;BME280;54510;42.016;23.098;2023-01-28T06:10:45;-21249.44;;;4.18;69.79
7337;BME280;54510;42.016;23.098;2023-01-28T06:13:11;-21243.13;;;3.95;71.22
7337;BME280;54510;42.016;23.098;2023-01-28T06:15:36;-21245.78;;;4.05;71.13
7337;BME280;54510;42.016;23.098;2023-01-28T06:18:02;-21245.38;;;4.03;71.19
7337;BME280;54510;42.016;23.098;2023-01-28T06:20:27;-21247.31;;;4.10;70.28
7337;BME280;54510;42.016;23.098;2023-01-28T06:22:53;-21250.41;;;4.21;70.55
7337;BME280;54510;42.016;23.098;2023-01-28T06:25:18;-21261.16;;;4.60;69.36
7337;BME280;54510;42.016;23.098;2023-01-28T06:27:44;-21255.59;;;4.40;69.48
7337;BME280;54510;42.016;23.098;2023-01-28T06:30:10;-21250.28;;;4.21;70.26
7337;BME280;54510;42.016;23.098;2023-01-28T06:32:36;-21251.66;;;4.26;69.33
7337;BME280;54510;42.016;23.098;2023-01-28T06:35:01;-21253.06;;;4.31;69.76
7337;BME280;54510;42.016;23.098;2023-01-28T06:37:26;-21257.25;;;4.46;69.56
7337;BME280;54510;42.016;23.098;2023-01-28T06:39:52;-21259.50;;;4.54;69.57
7337;BME280;54510;42.016;23.098;2023-01-28T06:42:17;-21258.25;;;4.50;69.59
7337;BME280;54510;42.016;23.098;2023-01-28T06:44:43;-21256.13;;;4.42;69.59
7337;BME280;54510;42.016;23.098;2023-01-28T06:47:08;-21249.16;;;4.17;70.50
7337;BME280;54510;42.016;23.098;2023-01-28T06:49:36;-21245.78;;;4.05;71.01
7337;BME280;54510;42.016;23.098;2023-01-28T06:52:01;-21249.28;;;4.17;70.51
7337;BME280;54510;42.016;23.098;2023-01-28T06:54:27;-21255.84;;;4.41;70.09
7337;BME280;54510;42.016;23.098;2023-01-28T06:56:52;-21257.25;;;4.46;69.53
7337;BME280;54510;42.016;23.098;2023-01-28T06:59:18;-21260.06;;;4.56;69.76
7337;BME280;54510;42.016;23.098;2023-01-28T07:01:43;-21257.41;;;4.47;69.32
7337;BME280;54510;42.016;23.098;2023-01-28T07:04:09;-21258.25;;;4.50;69.54
7337;BME280;54510;42.016;23.098;2023-01-28T07:06:35;-21259.22;;;4.53;70.12
7337;BME280;54510;42.016;23.098;2023-01-28T07:09:00;-21267.59;;;4.84;69.19
7337;BME280;54510;42.016;23.098;2023-01-28T07:11:26;-21261.44;;;4.61;68.02
7337;BME280;54510;42.016;23.098;2023-01-28T07:13:51;-21263.41;;;4.68;68.30
7337;BME280;54510;42.016;23.098;2023-01-28T07:16:16;-21265.38;;;4.75;67.20
7337;BME280;54510;42.016;23.098;2023-01-28T07:18:42;-21264.25;;;4.71;67.82
7337;BME280;54510;42.016;23.098;2023-01-28T07:21:07;-21264.38;;;4.72;67.64
7337;BME280;54510;42.016;23.098;2023-01-28T07:23:33;-21264.66;;;4.73;67.97
7337;BME280;54510;42.016;23.098;2023-01-28T07:26:02;-21260.75;;;4.59;67.44
7337;BME280;54510;42.016;23.098;2023-01-28T07:28:28;-21255.72;;;4.41;67.09
7337;BME280;54510;42.016;23.098;2023-01-28T07:30:54;-21262.00;;;4.63;67.36
7337;BME280;54510;42.016;23.098;2023-01-28T07:33:19;-21267.75;;;4.84;66.63
7337;BME280;54510;42.016;23.098;2023-01-28T07:35:46;-21269.00;;;4.89;66.31
7337;BME280;54510;42.016;23.098;2023-01-28T07:38:11;-21264.94;;;4.74;66.89
7337;BME280;54510;42.016;23.098;2023-01-28T07:40:37;-21263.56;;;4.69;66.92
7337;BME280;54510;42.016;23.098;2023-01-28T07:43:03;-21271.22;;;4.97;66.17
7337;BME280;54510;42.016;23.098;2023-01-28T07:45:28;-21258.66;;;4.51;67.43
7337;BME280;54510;42.016;23.098;2023-01-28T07:48:01;-21261.88;;;4.63;67.94
7337;BME280;54510;42.016;23.098;2023-01-28T07:50:27;-21263.97;;;4.70;67.37
7337;BME280;54510;42.016;23.098;2023-01-28T07:52:54;-21260.47;;;4.58;67.44
7337;BME280;54510;42.016;23.098;2023-01-28T07:55:20;-21264.53;;;4.72;67.51
7337;BME280;54510;42.016;23.098;2023-01-28T07:57:51;-21261.31;;;4.61;68.02
7337;BME280;54510;42.016;23.098;2023-01-28T08:00:17;-21270.53;;;4.94;66.85
7337;BME280;54510;42.016;23.098;2023-01-28T08:02:43;-21263.13;;;4.67;67.54
7337;BME280;54510;42.016;23.098;2023-01-28T08:05:14;-21265.78;;;4.77;67.92
7337;BME280;54510;42.016;23.098;2023-01-28T08:07:39;-21263.00;;;4.67;68.56
7337;BME280;54510;42.016;23.098;2023-01-28T08:10:05;-21273.88;;;5.06;68.07
7337;BME280;54510;42.016;23.098;2023-01-28T08:12:31;-21273.88;;;5.06;66.80
7337;BME280;54510;42.016;23.098;2023-01-28T08:14:56;-21274.44;;;5.08;67.13
7337;BME280;54510;42.016;23.098;2023-01-28T08:17:21;-21277.78;;;5.21;66.32
7337;BME280;54510;42.016;23.098;2023-01-28T08:19:47;-21273.34;;;5.04;66.52
7337;BME280;54510;42.016;23.098;2023-01-28T08:22:12;-21266.75;;;4.81;67.30
7337;BME280;54510;42.016;23.098;2023-01-28T08:24:38;-21281.16;;;5.33;66.54
7337;BME280;54510;42.016;23.098;2023-01-28T08:27:03;-21279.75;;;5.28;65.39
7337;BME280;54510;42.016;23.098;2023-01-28T08:29:29;-21294.00;;;5.79;64.17
7337;BME280;54510;42.016;23.098;2023-01-28T08:31:54;-21281.56;;;5.34;64.13
7337;BME280;54510;42.016;23.098;2023-01-28T08:34:19;-21289.66;;;5.64;64.45
7337;BME280;54510;42.016;23.098;2023-01-28T08:36:45;-21280.72;;;5.31;64.73
7337;BME280;54510;42.016;23.098;2023-01-28T08:39:10;-21288.13;;;5.58;64.12
7337;BME280;54510;42.016;23.098;2023-01-28T08:41:35;-21288.81;;;5.61;64.36
7337;BME280;54510;42.016;23.098;2023-01-28T08:44:01;-21292.88;;;5.75;62.98
7337;BME280;54510;42.016;23.098;2023-01-28T08:46:26;-21281.44;;;5.34;63.86
7337;BME280;54510;42.016;23.098;2023-01-28T08:48:52;-21283.94;;;5.43;64.53
7337;BME280;54510;42.016;23.098;2023-01-28T08:51:17;-21289.25;;;5.62;63.61
7337;BME280;54510;42.016;23.098;2023-01-28T08:53:42;-21275.41;;;5.12;64.65
7337;BME280;54510;42.016;23.098;2023-01-28T08:56:08;-21300.13;;;6.02;63.32
7337;BME280;54510;42.016;23.098;2023-01-28T08:58:33;-21310.19;;;6.38;62.01
7337;BME280;54510;42.016;23.098;2023-01-28T09:01:05;-21317.31;;;6.64;60.75
7337;BME280;54510;42.016;23.098;2023-01-28T09:03:31;-21319.94;;;6.73;60.31
7337;BME280;54510;42.016;23.098;2023-01-28T09:06:01;-21303.75;;;6.15;61.47
7337;BME280;54510;42.016;23.098;2023-01-28T09:08:26;-21309.75;;;6.37;62.10
7337;BME280;54510;42.016;23.098;2023-01-28T09:10:56;-21295.25;;;5.84;62.62
7337;BME280;54510;42.016;23.098;2023-01-28T09:13:21;-21313.25;;;6.49;61.22
7337;BME280;54510;42.016;23.098;2023-01-28T09:15:47;-21304.31;;;6.17;61.49
7337;BME280;54510;42.016;23.098;2023-01-28T09:18:12;-21308.78;;;6.33;61.74
7337;BME280;54510;42.016;23.098;2023-01-28T09:20:38;-21311.59;;;6.43;61.69
7337;BME280;54510;42.016;23.098;2023-01-28T09:23:04;-21320.50;;;6.75;61.08
7337;BME280;54510;42.016;23.098;2023-01-28T09:25:30;-21316.88;;;6.62;61.30
7337;BME280;54510;42.016;23.098;2023-01-28T09:27:56;-21326.63;;;6.98;61.05
7337;BME280;54510;42.016;23.098;2023-01-28T09:30:22;-21318.56;;;6.68;61.28
7337;BME280;54510;42.016;23.098;2023-01-28T09:32:52;-21324.13;;;6.89;61.14
7337;BME280;54510;42.016;23.098;2023-01-28T09:35:17;-21322.59;;;6.83;60.83
7337;BME280;54510;42.016;23.098;2023-01-28T09:37:44;-21325.66;;;6.94;60.80
7337;BME280;54510;42.016;23.098;2023-01-28T09:40:36;-21334.31;;;7.26;59.54
7337;BME280;54510;42.016;23.098;2023-01-28T09:45:43;-21327.34;;;7.00;59.82
7337;BME280;54510;42.016;23.098;2023-01-28T09:48:16;-21332.50;;;7.19;58.80
7337;BME280;54510;42.016;23.098;2023-01-28T09:50:48;-21328.59;;;7.05;58.61
7337;BME280;54510;42.016;23.098;2023-01-28T09:53:18;-21332.78;;;7.20;58.74
7337;BME280;54510;42.016;23.098;2023-01-28T09:55:49;-21322.72;;;6.84;59.08
7337;BME280;54510;42.016;23.098;2023-01-28T09:58:17;-21326.09;;;6.96;58.91
7337;BME280;54510;42.016;23.098;2023-01-28T10:09:18;-21329.97;;;7.10;58.92
7337;BME280;54510;42.016;23.098;2023-01-28T10:17:41;-21334.16;;;7.25;57.23
7337;BME280;54510;42.016;23.098;2023-01-28T10:22:44;-21320.50;;;6.75;58.37
7337;BME280;54510;42.016;23.098;2023-01-28T10:25:19;-21336.53;;;7.34;57.27
7337;BME280;54510;42.016;23.098;2023-01-28T10:27:46;-21344.63;;;7.63;56.24
7337;BME280;54510;42.016;23.098;2023-01-28T10:30:24;-21336.53;;;7.34;56.90
7337;BME280;54510;42.016;23.098;2023-01-28T10:32:52;-21345.31;;;7.66;57.32
7337;BME280;54510;42.016;23.098;2023-01-28T10:35:21;-21354.22;;;7.98;56.42
7337;BME280;54510;42.016;23.098;2023-01-28T10:37:47;-21347.25;;;7.73;55.44
7337;BME280;54510;42.016;23.098;2023-01-28T10:40:16;-21350.59;;;7.85;55.50
7337;BME280;54510;42.016;23.098;2023-01-28T10:42:43;-21351.59;;;7.88;55.60
7337;BME280;54510;42.016;23.098;2023-01-28T10:48:18;-21349.78;;;7.82;54.79
7337;BME280;54510;42.016;23.098;2023-01-28T10:50:52;-21353.66;;;7.96;55.34
7337;BME280;54510;42.016;23.098;2023-01-28T10:53:17;-21356.72;;;8.07;54.64
7337;BME280;54510;42.016;23.098;2023-01-28T10:55:50;-21347.25;;;7.73;55.23
7337;BME280;54510;42.016;23.098;2023-01-28T10:58:21;-21349.50;;;7.81;55.21
7337;BME280;54510;42.016;23.098;2023-01-28T11:00:53;-21327.06;;;6.99;56.71
7337;BME280;54510;42.016;23.098;2023-01-28T11:03:22;-21340.56;;;7.48;56.36
7337;BME280;54510;42.016;23.098;2023-01-28T11:05:53;-21341.56;;;7.52;55.67
7337;BME280;54510;42.016;23.098;2023-01-28T11:08:20;-21350.88;;;7.86;55.46
7337;BME280;54510;42.016;23.098;2023-01-28T11:10:46;-21346.97;;;7.72;54.82
7337;BME280;54510;42.016;23.098;2023-01-28T11:13:32;-21345.44;;;7.66;55.01
7337;BME280;54510;42.016;23.098;2023-01-28T11:16:03;-21350.19;;;7.83;55.52
7337;BME280;54510;42.016;23.098;2023-01-28T11:18:47;-21348.94;;;7.79;55.14
7337;BME280;54510;42.016;23.098;2023-01-28T11:21:18;-21346.16;;;7.69;55.71
7337;BME280;54510;42.016;23.098;2023-01-28T11:26:20;-21352.41;;;7.91;55.52
7337;BME280;54510;42.016;23.098;2023-01-28T11:28:47;-21354.50;;;7.99;53.87
7337;BME280;54510;42.016;23.098;2023-01-28T11:31:16;-21346.44;;;7.70;54.05
7337;BME280;54510;42.016;23.098;2023-01-28T11:33:48;-21355.75;;;8.04;54.40
7337;BME280;54510;42.016;23.098;2023-01-28T11:36:17;-21347.13;;;7.72;54.07
7337;BME280;54510;42.016;23.098;2023-01-28T11:38:54;-21339.19;;;7.43;55.50
7337;BME280;54510;42.016;23.098;2023-01-28T11:41:37;-21339.19;;;7.43;55.51
7337;BME280;54510;42.016;23.098;2023-01-28T11:44:23;-21346.84;;;7.71;54.90
7337;BME280;54510;42.016;23.098;2023-01-28T12:06:42;-21351.59;;;7.88;55.00
7337;BME280;54510;42.016;23.098;2023-01-28T12:15:18;-21335.84;;;7.31;55.46
7337;BME280;54510;42.016;23.098;2023-01-28T12:20:32;-21349.78;;;7.82;54.75
7337;BME280;54510;42.016;23.098;2023-01-28T12:23:12;-21338.63;;;7.41;54.92
7337;BME280;54510;42.016;23.098;2023-01-28T12:31:35;-21348.09;;;7.76;54.76
7337;BME280;54510;42.016;23.098;2023-01-28T12:45:50;-21335.28;;;7.29;55.81
7337;BME280;54510;42.016;23.098;2023-01-28T12:47:53;-21331.78;;;7.17;55.51
7337;BME280;54510;42.016;23.098;2023-01-28T12:50:32;-21342.25;;;7.54;55.18
7337;BME280;54510;42.016;23.098;2023-01-28T12:53:02;-21329.97;;;7.10;55.74
7337;BME280;54510;42.016;23.098;2023-01-28T12:55:39;-21327.91;;;7.02;55.96
7337;BME280;54510;42.016;23.098;2023-01-28T12:58:12;-21320.78;;;6.77;56.99
7337;BME280;54510;42.016;23.098;2023-01-28T13:00:43;-21328.16;;;7.03;56.80
7337;BME280;54510;42.016;23.098;2023-01-28T13:05:51;-21326.50;;;6.97;56.02
7337;BME280;54510;42.016;23.098;2023-01-28T13:08:22;-21333.47;;;7.23;56.31
7337;BME280;54510;42.016;23.098;2023-01-28T13:10:48;-21322.19;;;6.82;56.68
7337;BME280;54510;42.016;23.098;2023-01-28T13:13:33;-21324.69;;;6.91;56.25
7337;BME280;54510;42.016;23.098;2023-01-28T13:16:01;-21324.41;;;6.90;56.46
7337;BME280;54510;42.016;23.098;2023-01-28T13:21:00;-21333.34;;;7.22;55.66
7337;BME280;54510;42.016;23.098;2023-01-28T13:23:46;-21332.63;;;7.20;55.98
7337;BME280;54510;42.016;23.098;2023-01-28T13:28:51;-21341.69;;;7.52;55.66
7337;BME280;54510;42.016;23.098;2023-01-28T13:31:22;-21329.84;;;7.09;55.90
7337;BME280;54510;42.016;23.098;2023-01-28T13:33:59;-21328.03;;;7.03;56.26
7337;BME280;54510;42.016;23.098;2023-01-28T13:36:28;-21332.50;;;7.19;56.00
7337;BME280;54510;42.016;23.098;2023-01-28T13:41:49;-21330.81;;;7.13;56.93
7337;BME280;54510;42.016;23.098;2023-01-28T13:46:55;-21331.09;;;7.14;56.91
7337;BME280;54510;42.016;23.098;2023-01-28T13:49:33;-21338.34;;;7.40;56.78
7337;BME280;54510;42.016;23.098;2023-01-28T14:17:37;-21346.72;;;7.71;56.03
7337;BME280;54510;42.016;23.098;2023-01-28T14:19:53;-21349.63;;;7.81;55.72
7337;BME280;54510;42.016;23.098;2023-01-28T14:22:20;-21346.84;;;7.71;56.46
7337;BME280;54510;42.016;23.098;2023-01-28T14:24:46;-21350.75;;;7.85;56.44
7337;BME280;54510;42.016;23.098;2023-01-28T14:27:49;-21351.59;;;7.88;56.17
7337;BME280;54510;42.016;23.098;2023-01-28T14:30:18;-21347.41;;;7.73;57.08
7337;BME280;54510;42.016;23.098;2023-01-28T14:32:48;-21348.38;;;7.77;57.55
7337;BME280;54510;42.016;23.098;2023-01-28T14:35:19;-21344.91;;;7.64;56.50
7337;BME280;54510;42.016;23.098;2023-01-28T14:37:47;-21344.47;;;7.63;57.35
7337;BME280;54510;42.016;23.098;2023-01-28T14:40:15;-21345.59;;;7.67;56.94
7337;BME280;54510;42.016;23.098;2023-01-28T14:42:44;-21338.91;;;7.42;57.30
7337;BME280;54510;42.016;23.098;2023-01-28T14:48:31;-21340.03;;;7.46;57.15
7337;BME280;54510;42.016;23.098;2023-01-28T14:56:35;-21333.63;;;7.23;57.80
7337;BME280;54510;42.016;23.098;2023-01-28T14:59:17;-21329.84;;;7.09;58.11
7337;BME280;54510;42.016;23.098;2023-01-28T15:01:47;-21331.25;;;7.14;58.03
7337;BME280;54510;42.016;23.098;2023-01-28T15:04:31;-21331.78;;;7.17;58.03
7337;BME280;54510;42.016;23.098;2023-01-28T15:07:05;-21327.63;;;7.01;58.49
7337;BME280;54510;42.016;23.098;2023-01-28T15:09:39;-21328.31;;;7.04;58.79
7337;BME280;54510;42.016;23.098;2023-01-28T15:12:06;-21326.22;;;6.96;58.37
7337;BME280;54510;42.016;23.098;2023-01-28T15:14:32;-21322.19;;;6.82;59.53
7337;BME280;54510;42.016;23.098;2023-01-28T15:16:58;-21327.63;;;7.01;59.27
7337;BME280;54510;42.016;23.098;2023-01-28T15:19:32;-21323.84;;;6.88;59.23
7337;BME280;54510;42.016;23.098;2023-01-28T15:22:05;-21318.28;;;6.67;59.09
7337;BME280;54510;42.016;23.098;2023-01-28T15:24:33;-21319.13;;;6.70;59.62
7337;BME280;54510;42.016;23.098;2023-01-28T15:26:59;-21314.66;;;6.54;59.77
7337;BME280;54510;42.016;23.098;2023-01-28T15:29:31;-21307.69;;;6.29;60.56
7337;BME280;54510;42.016;23.098;2023-01-28T15:31:57;-21311.59;;;6.43;60.66